PWSweather.com
Personal Weather Stations
Station Observations
WAIROAHB
Wairoa, Northern Hawkes Bay -NZ 4108

WairoaNorthern Hawkes Bay -NZ 4108

Lat: -39.04516934, Lon: 177.4263989

Elevation: 156

Station Type: WS3083

http://wairoa.net/weather/index.htm

High Low Average
Temperature 85.5°F29.7°C 59.5°F15.3°C 73.0°F22.8°C
Dew Point 62.1°F16.7°C 50.3°F10.2°C 58.1°F14.5°C
Winds 13.6 mph 21.9 kmh Calm Calm 5.0 mph WNW8.0 kmh WNW
Wind Gusts 20.6 mph33.2 kmh -- 10.0 mph16.1 kmh
Humidity 97% 33% 63%
Pressure 30.13 in1020.3 mb 29.97 in1014.9 mb -
Precipitation 0.00 in0.0 mm - -
Hour Temp Dew Point Humidity Winds Wind Gusts Pressure Precip Precip Rate Daily Precip Total
12:00 AM 65.1°F18.4°C 59.5°F15.3°C 82% Calm Calm -- 30.13 in1020.3 mb 0.00 in0.0 mm 0.00 in0.0 mm 0.00 in0.0 mm
12:10 AM 64.0°F17.8°C 58.5°F14.7°C 82% Calm Calm -- 30.13 in1020.3 mb 0.00 in0.0 mm 0.00 in0.0 mm 0.00 in0.0 mm
12:20 AM 63.3°F17.4°C 58.8°F14.9°C 85% Calm Calm -- 30.12 in1020.0 mb 0.00 in0.0 mm 0.00 in0.0 mm 0.00 in0.0 mm
12:30 AM 62.8°F17.1°C 58.5°F14.7°C 86% Calm Calm -- 30.12 in1020.0 mb 0.00 in0.0 mm 0.00 in0.0 mm 0.00 in0.0 mm
12:40 AM 62.4°F16.9°C 59.2°F15.1°C 89% Calm Calm -- 30.12 in1020.0 mb 0.00 in0.0 mm 0.00 in0.0 mm 0.00 in0.0 mm
12:50 AM 62.2°F16.8°C 59.6°F15.3°C 91% Calm Calm -- 30.12 in1020.0 mb 0.00 in0.0 mm 0.00 in0.0 mm 0.00 in0.0 mm
01:00 AM 61.9°F16.6°C 59.5°F15.3°C 92% Calm Calm -- 30.11 in1019.6 mb 0.00 in0.0 mm 0.00 in0.0 mm 0.00 in0.0 mm
01:10 AM 61.5°F16.4°C 59.5°F15.3°C 93% Calm Calm -- 30.11 in1019.6 mb 0.00 in0.0 mm 0.00 in0.0 mm 0.00 in0.0 mm
01:20 AM 61.3°F16.3°C 59.6°F15.3°C 94% 1.6 mph N2.6 kmh N 3.1 mph5.0 kmh 30.10 in1019.3 mb 0.00 in0.0 mm 0.00 in0.0 mm 0.00 in0.0 mm
01:30 AM 61.2°F16.2°C 59.4°F15.2°C 94% 0.7 mph NNW1.1 kmh NNW 3.8 mph6.1 kmh 30.09 in1019.0 mb 0.00 in0.0 mm 0.00 in0.0 mm 0.00 in0.0 mm
01:40 AM 61.2°F16.2°C 59.7°F15.4°C 95% 1.6 mph NW2.6 kmh NW 3.8 mph6.1 kmh 30.10 in1019.3 mb 0.00 in0.0 mm 0.00 in0.0 mm 0.00 in0.0 mm
01:50 AM 61.2°F16.2°C 59.7°F15.4°C 95% 2.2 mph NNW3.5 kmh NNW 4.5 mph7.2 kmh 30.09 in1019.0 mb 0.00 in0.0 mm 0.00 in0.0 mm 0.00 in0.0 mm
02:00 AM 61.5°F16.4°C 59.8°F15.4°C 94% 3.1 mph NW5.0 kmh NW 5.4 mph8.7 kmh 30.09 in1019.0 mb 0.00 in0.0 mm 0.00 in0.0 mm 0.00 in0.0 mm
02:10 AM 61.5°F16.4°C 59.8°F15.4°C 94% 3.8 mph N6.1 kmh N 6.0 mph9.7 kmh 30.09 in1019.0 mb 0.00 in0.0 mm 0.00 in0.0 mm 0.00 in0.0 mm
02:20 AM 61.2°F16.2°C 59.4°F15.2°C 94% 3.8 mph NNW6.1 kmh NNW 6.9 mph11.1 kmh 30.09 in1019.0 mb 0.00 in0.0 mm 0.00 in0.0 mm 0.00 in0.0 mm
02:30 AM 61.0°F16.1°C 59.6°F15.3°C 95% 4.5 mph NW7.2 kmh NW 6.0 mph9.7 kmh 30.09 in1019.0 mb 0.00 in0.0 mm 0.00 in0.0 mm 0.00 in0.0 mm
02:40 AM 60.6°F15.9°C 59.5°F15.3°C 96% 3.1 mph NW5.0 kmh NW 5.4 mph8.7 kmh 30.09 in1019.0 mb 0.00 in0.0 mm 0.00 in0.0 mm 0.00 in0.0 mm
02:50 AM 60.6°F15.9°C 59.8°F15.4°C 97% 2.2 mph N3.5 kmh N 5.4 mph8.7 kmh 30.09 in1019.0 mb 0.00 in0.0 mm 0.00 in0.0 mm 0.00 in0.0 mm
03:00 AM 60.6°F15.9°C 59.8°F15.4°C 97% 3.1 mph NNW5.0 kmh NNW 5.4 mph8.7 kmh 30.09 in1019.0 mb 0.00 in0.0 mm 0.00 in0.0 mm 0.00 in0.0 mm
03:10 AM 60.6°F15.9°C 59.5°F15.3°C 96% 2.2 mph NNW3.5 kmh NNW 4.5 mph7.2 kmh 30.09 in1019.0 mb 0.00 in0.0 mm 0.00 in0.0 mm 0.00 in0.0 mm
03:20 AM 60.8°F16.0°C 59.4°F15.2°C 95% 3.8 mph NNW6.1 kmh NNW 6.0 mph9.7 kmh 30.09 in1019.0 mb 0.00 in0.0 mm 0.00 in0.0 mm 0.00 in0.0 mm
03:30 AM 60.8°F16.0°C 59.4°F15.2°C 95% 3.1 mph NNW5.0 kmh NNW 6.0 mph9.7 kmh 30.09 in1019.0 mb 0.00 in0.0 mm 0.00 in0.0 mm 0.00 in0.0 mm
03:40 AM 61.0°F16.1°C 59.3°F15.2°C 94% 4.5 mph NNW7.2 kmh NNW 8.3 mph13.4 kmh 30.09 in1019.0 mb 0.00 in0.0 mm 0.00 in0.0 mm 0.00 in0.0 mm
03:50 AM 61.0°F16.1°C 59.0°F15.0°C 93% 4.5 mph NNW7.2 kmh NNW 8.3 mph13.4 kmh 30.08 in1018.6 mb 0.00 in0.0 mm 0.00 in0.0 mm 0.00 in0.0 mm
04:00 AM 60.8°F16.0°C 58.8°F14.9°C 93% 5.4 mph NNW8.7 kmh NNW 8.3 mph13.4 kmh 30.08 in1018.6 mb 0.00 in0.0 mm 0.00 in0.0 mm 0.00 in0.0 mm
04:10 AM 60.4°F15.8°C 58.7°F14.8°C 94% 3.8 mph NNW6.1 kmh NNW 8.3 mph13.4 kmh 30.08 in1018.6 mb 0.00 in0.0 mm 0.00 in0.0 mm 0.00 in0.0 mm
04:20 AM 60.3°F15.7°C 58.5°F14.7°C 94% 3.8 mph NW6.1 kmh NW 6.9 mph11.1 kmh 30.09 in1019.0 mb 0.00 in0.0 mm 0.00 in0.0 mm 0.00 in0.0 mm
04:30 AM 59.9°F15.5°C 58.2°F14.6°C 94% 4.5 mph NW7.2 kmh NW 6.0 mph9.7 kmh 30.09 in1019.0 mb 0.00 in0.0 mm 0.00 in0.0 mm 0.00 in0.0 mm
04:40 AM 59.7°F15.4°C 58.0°F14.4°C 94% 3.1 mph NW5.0 kmh NW 7.6 mph12.2 kmh 30.09 in1019.0 mb 0.00 in0.0 mm 0.00 in0.0 mm 0.00 in0.0 mm
04:50 AM 59.5°F15.3°C 58.1°F14.5°C 95% 4.5 mph NW7.2 kmh NW 7.6 mph12.2 kmh 30.09 in1019.0 mb 0.00 in0.0 mm 0.00 in0.0 mm 0.00 in0.0 mm
05:00 AM 59.5°F15.3°C 58.1°F14.5°C 95% 3.1 mph NW5.0 kmh NW 6.9 mph11.1 kmh 30.09 in1019.0 mb 0.00 in0.0 mm 0.00 in0.0 mm 0.00 in0.0 mm
05:10 AM 59.9°F15.5°C 58.5°F14.7°C 95% 3.1 mph NW5.0 kmh NW 6.0 mph9.7 kmh 30.09 in1019.0 mb 0.00 in0.0 mm 0.00 in0.0 mm 0.00 in0.0 mm
05:20 AM 60.8°F16.0°C 58.5°F14.7°C 92% 3.8 mph NW6.1 kmh NW 6.0 mph9.7 kmh 30.09 in1019.0 mb 0.00 in0.0 mm 0.00 in0.0 mm 0.00 in0.0 mm
05:30 AM 61.9°F16.6°C 58.6°F14.8°C 89% 3.8 mph N6.1 kmh N 6.9 mph11.1 kmh 30.08 in1018.6 mb 0.00 in0.0 mm 0.00 in0.0 mm 0.00 in0.0 mm
05:40 AM 62.6°F17.0°C 58.0°F14.4°C 85% 4.5 mph NNW7.2 kmh NNW 7.6 mph12.2 kmh 30.08 in1018.6 mb 0.00 in0.0 mm 0.00 in0.0 mm 0.00 in0.0 mm
05:50 AM 63.5°F17.5°C 58.3°F14.6°C 83% 5.4 mph NNW8.7 kmh NNW 9.2 mph14.8 kmh 30.08 in1018.6 mb 0.00 in0.0 mm 0.00 in0.0 mm 0.00 in0.0 mm
06:00 AM 65.1°F18.4°C 58.5°F14.7°C 79% 4.5 mph NW7.2 kmh NW 9.2 mph14.8 kmh 30.08 in1018.6 mb 0.00 in0.0 mm 0.00 in0.0 mm 0.00 in0.0 mm
06:10 AM 66.2°F19.0°C 58.1°F14.5°C 75% 4.5 mph N7.2 kmh N 9.2 mph14.8 kmh 30.08 in1018.6 mb 0.00 in0.0 mm 0.00 in0.0 mm 0.00 in0.0 mm
06:20 AM 66.9°F19.4°C 58.4°F14.7°C 74% 5.4 mph N8.7 kmh N 9.2 mph14.8 kmh 30.08 in1018.6 mb 0.00 in0.0 mm 0.00 in0.0 mm 0.00 in0.0 mm
06:30 AM 68.2°F20.1°C 57.6°F14.2°C 69% 4.5 mph N7.2 kmh N 9.2 mph14.8 kmh 30.08 in1018.6 mb 0.00 in0.0 mm 0.00 in0.0 mm 0.00 in0.0 mm
06:40 AM 68.7°F20.4°C 57.8°F14.3°C 68% 5.4 mph NNW8.7 kmh NNW 9.8 mph15.8 kmh 30.07 in1018.3 mb 0.00 in0.0 mm 0.00 in0.0 mm 0.00 in0.0 mm
06:50 AM 69.3°F20.7°C 57.4°F14.1°C 66% 4.5 mph N7.2 kmh N 11.4 mph18.3 kmh 30.07 in1018.3 mb 0.00 in0.0 mm 0.00 in0.0 mm 0.00 in0.0 mm
07:00 AM 69.6°F20.9°C 57.4°F14.1°C 65% 6.0 mph N9.7 kmh N 11.4 mph18.3 kmh 30.08 in1018.6 mb 0.00 in0.0 mm 0.00 in0.0 mm 0.00 in0.0 mm
07:10 AM 70.0°F21.1°C 57.3°F14.1°C 64% 6.0 mph N9.7 kmh N 13.0 mph20.9 kmh 30.07 in1018.3 mb 0.00 in0.0 mm 0.00 in0.0 mm 0.00 in0.0 mm
07:20 AM 70.7°F21.5°C 57.5°F14.2°C 63% 3.8 mph N6.1 kmh N 12.1 mph19.5 kmh 30.07 in1018.3 mb 0.00 in0.0 mm 0.00 in0.0 mm 0.00 in0.0 mm
07:30 AM 71.2°F21.8°C 58.0°F14.4°C 63% 6.0 mph NNW9.7 kmh NNW 12.1 mph19.5 kmh 30.08 in1018.6 mb 0.00 in0.0 mm 0.00 in0.0 mm 0.00 in0.0 mm
07:40 AM 71.4°F21.9°C 57.7°F14.3°C 62% 3.8 mph N6.1 kmh N 13.0 mph20.9 kmh 30.07 in1018.3 mb 0.00 in0.0 mm 0.00 in0.0 mm 0.00 in0.0 mm
07:50 AM 71.6°F22.0°C 57.5°F14.2°C 61% 6.9 mph N11.1 kmh N 11.4 mph18.3 kmh 30.08 in1018.6 mb 0.00 in0.0 mm 0.00 in0.0 mm 0.00 in0.0 mm
08:20 AM 73.2°F22.9°C 59.0°F15.0°C 61% 5.4 mph N8.7 kmh N 12.1 mph19.5 kmh 30.08 in1018.6 mb 0.00 in0.0 mm 0.00 in0.0 mm 0.00 in0.0 mm
08:30 AM 74.1°F23.4°C 58.4°F14.7°C 58% 5.4 mph N8.7 kmh N 12.1 mph19.5 kmh 30.08 in1018.6 mb 0.00 in0.0 mm 0.00 in0.0 mm 0.00 in0.0 mm
08:40 AM 74.7°F23.7°C 57.5°F14.2°C 55% 6.0 mph NNW9.7 kmh NNW 11.4 mph18.3 kmh 30.07 in1018.3 mb 0.00 in0.0 mm 0.00 in0.0 mm 0.00 in0.0 mm
08:50 AM 75.2°F24.0°C 55.9°F13.3°C 51% 5.4 mph N8.7 kmh N 13.6 mph21.9 kmh 30.07 in1018.3 mb 0.00 in0.0 mm 0.00 in0.0 mm 0.00 in0.0 mm
09:00 AM 75.2°F24.0°C 54.2°F12.3°C 48% 11.4 mph N18.3 kmh N 15.9 mph25.6 kmh 30.06 in1017.9 mb 0.00 in0.0 mm 0.00 in0.0 mm 0.00 in0.0 mm
09:10 AM 75.7°F24.3°C 54.1°F12.3°C 47% 9.2 mph NNW14.8 kmh NNW 16.8 mph27.0 kmh 30.06 in1017.9 mb 0.00 in0.0 mm 0.00 in0.0 mm 0.00 in0.0 mm
09:20 AM 76.5°F24.7°C 54.8°F12.7°C 47% 7.6 mph NNW12.2 kmh NNW 15.2 mph24.5 kmh 30.07 in1018.3 mb 0.00 in0.0 mm 0.00 in0.0 mm 0.00 in0.0 mm
09:30 AM 76.6°F24.8°C 54.3°F12.4°C 46% 9.2 mph NW14.8 kmh NW 15.2 mph24.5 kmh 30.06 in1017.9 mb 0.00 in0.0 mm 0.00 in0.0 mm 0.00 in0.0 mm
09:40 AM 76.8°F24.9°C 53.9°F12.2°C 45% 7.6 mph NNW12.2 kmh NNW 15.9 mph25.6 kmh 30.06 in1017.9 mb 0.00 in0.0 mm 0.00 in0.0 mm 0.00 in0.0 mm
09:50 AM 78.4°F25.8°C 54.8°F12.7°C 44% 6.9 mph NW11.1 kmh NW 16.8 mph27.0 kmh 30.06 in1017.9 mb 0.00 in0.0 mm 0.00 in0.0 mm 0.00 in0.0 mm
10:00 AM 78.1°F25.6°C 52.5°F11.4°C 41% 7.6 mph N12.2 kmh N 13.0 mph20.9 kmh 30.05 in1017.6 mb 0.00 in0.0 mm 0.00 in0.0 mm 0.00 in0.0 mm
10:10 AM 78.6°F25.9°C 54.3°F12.4°C 43% 7.6 mph N12.2 kmh N 15.2 mph24.5 kmh 30.05 in1017.6 mb 0.00 in0.0 mm 0.00 in0.0 mm 0.00 in0.0 mm
10:20 AM 78.3°F25.7°C 53.3°F11.8°C 42% 6.9 mph N11.1 kmh N 14.5 mph23.3 kmh 30.05 in1017.6 mb 0.00 in0.0 mm 0.00 in0.0 mm 0.00 in0.0 mm
10:30 AM 78.6°F25.9°C 54.3°F12.4°C 43% 6.0 mph N9.7 kmh N 13.0 mph20.9 kmh 30.05 in1017.6 mb 0.00 in0.0 mm 0.00 in0.0 mm 0.00 in0.0 mm
10:40 AM 78.8°F26.0°C 53.8°F12.1°C 42% 6.0 mph NNW9.7 kmh NNW 15.2 mph24.5 kmh 30.05 in1017.6 mb 0.00 in0.0 mm 0.00 in0.0 mm 0.00 in0.0 mm
10:50 AM 79.7°F26.5°C 54.6°F12.6°C 42% 9.8 mph NNW15.8 kmh NNW 13.0 mph20.9 kmh 30.04 in1017.3 mb 0.00 in0.0 mm 0.00 in0.0 mm 0.00 in0.0 mm
11:00 AM 79.9°F26.6°C 54.1°F12.3°C 41% 7.6 mph N12.2 kmh N 12.1 mph19.5 kmh 30.04 in1017.3 mb 0.00 in0.0 mm 0.00 in0.0 mm 0.00 in0.0 mm
11:10 AM 80.6°F27.0°C 53.4°F11.9°C 39% 5.4 mph NNW8.7 kmh NNW 13.6 mph21.9 kmh 30.05 in1017.6 mb 0.00 in0.0 mm 0.00 in0.0 mm 0.00 in0.0 mm
11:20 AM 81.1°F27.3°C 53.9°F12.2°C 39% 7.6 mph NW12.2 kmh NW 11.4 mph18.3 kmh 30.05 in1017.6 mb 0.00 in0.0 mm 0.00 in0.0 mm 0.00 in0.0 mm
11:30 AM 81.1°F27.3°C 51.7°F10.9°C 36% 6.9 mph NW11.1 kmh NW 11.4 mph18.3 kmh 30.04 in1017.3 mb 0.00 in0.0 mm 0.00 in0.0 mm 0.00 in0.0 mm
11:40 AM 82.0°F27.8°C 52.5°F11.4°C 36% 3.8 mph NW6.1 kmh NW 12.1 mph19.5 kmh 30.04 in1017.3 mb 0.00 in0.0 mm 0.00 in0.0 mm 0.00 in0.0 mm
11:50 AM 82.2°F27.9°C 50.3°F10.2°C 33% 13.6 mph NW21.9 kmh NW 20.6 mph33.2 kmh 30.04 in1017.3 mb 0.00 in0.0 mm 0.00 in0.0 mm 0.00 in0.0 mm
12:00 PM 81.1°F27.3°C 50.9°F10.5°C 35% 8.3 mph NW13.4 kmh NW 20.6 mph33.2 kmh 30.04 in1017.3 mb 0.00 in0.0 mm 0.00 in0.0 mm 0.00 in0.0 mm
12:10 PM 81.1°F27.3°C 50.9°F10.5°C 35% 11.4 mph N18.3 kmh N 19.0 mph30.6 kmh 30.03 in1016.9 mb 0.00 in0.0 mm 0.00 in0.0 mm 0.00 in0.0 mm
12:20 PM 81.9°F27.7°C 52.3°F11.3°C 36% 6.9 mph NW11.1 kmh NW 18.3 mph29.5 kmh 30.03 in1016.9 mb 0.00 in0.0 mm 0.00 in0.0 mm 0.00 in0.0 mm
12:30 PM 82.2°F27.9°C 52.7°F11.5°C 36% 13.0 mph NNW20.9 kmh NNW 16.8 mph27.0 kmh 30.03 in1016.9 mb 0.00 in0.0 mm 0.00 in0.0 mm 0.00 in0.0 mm
12:40 PM 81.9°F27.7°C 53.1°F11.7°C 37% 10.7 mph NW17.2 kmh NW 17.4 mph28.0 kmh 30.02 in1016.6 mb 0.00 in0.0 mm 0.00 in0.0 mm 0.00 in0.0 mm
12:50 PM 82.0°F27.8°C 52.5°F11.4°C 36% 8.3 mph NNW13.4 kmh NNW 18.3 mph29.5 kmh 30.02 in1016.6 mb 0.00 in0.0 mm 0.00 in0.0 mm 0.00 in0.0 mm
01:00 PM 82.2°F27.9°C 54.8°F12.7°C 39% 9.8 mph NNW15.8 kmh NNW 17.4 mph28.0 kmh 30.02 in1016.6 mb 0.00 in0.0 mm 0.00 in0.0 mm 0.00 in0.0 mm
01:10 PM 81.9°F27.7°C 55.9°F13.3°C 41% 9.8 mph NW15.8 kmh NW 19.7 mph31.7 kmh 30.02 in1016.6 mb 0.00 in0.0 mm 0.00 in0.0 mm 0.00 in0.0 mm
01:20 PM 82.6°F28.1°C 56.5°F13.6°C 41% 9.8 mph NW15.8 kmh NW 18.3 mph29.5 kmh 30.02 in1016.6 mb 0.00 in0.0 mm 0.00 in0.0 mm 0.00 in0.0 mm
01:30 PM 82.6°F28.1°C 56.5°F13.6°C 41% 7.6 mph NW12.2 kmh NW 19.7 mph31.7 kmh 30.02 in1016.6 mb 0.00 in0.0 mm 0.00 in0.0 mm 0.00 in0.0 mm
01:40 PM 82.6°F28.1°C 56.5°F13.6°C 41% 6.9 mph NNW11.1 kmh NNW 17.4 mph28.0 kmh 30.01 in1016.3 mb 0.00 in0.0 mm 0.00 in0.0 mm 0.00 in0.0 mm
01:50 PM 82.9°F28.3°C 57.5°F14.2°C 42% 8.3 mph NNW13.4 kmh NNW 16.8 mph27.0 kmh 30.00 in1015.9 mb 0.00 in0.0 mm 0.00 in0.0 mm 0.00 in0.0 mm
02:00 PM 82.8°F28.2°C 56.7°F13.7°C 41% 6.9 mph NNW11.1 kmh NNW 16.8 mph27.0 kmh 30.00 in1015.9 mb 0.00 in0.0 mm 0.00 in0.0 mm 0.00 in0.0 mm
02:10 PM 83.5°F28.6°C 57.4°F14.1°C 41% 5.4 mph NW8.7 kmh NW 15.2 mph24.5 kmh 30.00 in1015.9 mb 0.00 in0.0 mm 0.00 in0.0 mm 0.00 in0.0 mm
02:20 PM 84.0°F28.9°C 58.5°F14.7°C 42% 9.2 mph NW14.8 kmh NW 15.9 mph25.6 kmh 30.00 in1015.9 mb 0.00 in0.0 mm 0.00 in0.0 mm 0.00 in0.0 mm
02:30 PM 84.2°F29.0°C 56.6°F13.7°C 39% 4.5 mph NW7.2 kmh NW 15.9 mph25.6 kmh 30.00 in1015.9 mb 0.00 in0.0 mm 0.00 in0.0 mm 0.00 in0.0 mm
02:40 PM 85.3°F29.6°C 56.1°F13.4°C 37% 6.9 mph NW11.1 kmh NW 14.5 mph23.3 kmh 29.99 in1015.6 mb 0.00 in0.0 mm 0.00 in0.0 mm 0.00 in0.0 mm
02:50 PM 84.9°F29.4°C 56.5°F13.6°C 38% 9.2 mph NW14.8 kmh NW 16.8 mph27.0 kmh 29.99 in1015.6 mb 0.00 in0.0 mm 0.00 in0.0 mm 0.00 in0.0 mm
03:00 PM 84.7°F29.3°C 57.1°F13.9°C 39% 9.8 mph NW15.8 kmh NW 14.5 mph23.3 kmh 29.99 in1015.6 mb 0.00 in0.0 mm 0.00 in0.0 mm 0.00 in0.0 mm
03:10 PM 85.5°F29.7°C 57.0°F13.9°C 38% 3.1 mph NW5.0 kmh NW 12.1 mph19.5 kmh 29.99 in1015.6 mb 0.00 in0.0 mm 0.00 in0.0 mm 0.00 in0.0 mm
03:20 PM 84.7°F29.3°C 55.6°F13.1°C 37% 4.5 mph NW7.2 kmh NW 13.0 mph20.9 kmh 29.98 in1015.2 mb 0.00 in0.0 mm 0.00 in0.0 mm 0.00 in0.0 mm
03:30 PM 84.9°F29.4°C 56.5°F13.6°C 38% 9.2 mph NW14.8 kmh NW 13.0 mph20.9 kmh 29.98 in1015.2 mb 0.00 in0.0 mm 0.00 in0.0 mm 0.00 in0.0 mm
03:40 PM 84.6°F29.2°C 56.9°F13.8°C 39% 8.3 mph NW13.4 kmh NW 13.0 mph20.9 kmh 29.98 in1015.2 mb 0.00 in0.0 mm 0.00 in0.0 mm 0.00 in0.0 mm
03:50 PM 84.6°F29.2°C 57.6°F14.2°C 40% 6.9 mph NNW11.1 kmh NNW 14.5 mph23.3 kmh 29.98 in1015.2 mb 0.00 in0.0 mm 0.00 in0.0 mm 0.00 in0.0 mm
04:00 PM 84.7°F29.3°C 59.2°F15.1°C 42% 7.6 mph NNW12.2 kmh NNW 13.6 mph21.9 kmh 29.98 in1015.2 mb 0.00 in0.0 mm 0.00 in0.0 mm 0.00 in0.0 mm
04:10 PM 84.0°F28.9°C 58.5°F14.7°C 42% 10.7 mph NW17.2 kmh NW 14.5 mph23.3 kmh 29.98 in1015.2 mb 0.00 in0.0 mm 0.00 in0.0 mm 0.00 in0.0 mm
04:20 PM 84.0°F28.9°C 58.5°F14.7°C 42% 3.8 mph NW6.1 kmh NW 13.6 mph21.9 kmh 29.97 in1014.9 mb 0.00 in0.0 mm 0.00 in0.0 mm 0.00 in0.0 mm
04:30 PM 83.8°F28.8°C 59.6°F15.3°C 44% 6.0 mph NNW9.7 kmh NNW 13.0 mph20.9 kmh 29.97 in1014.9 mb 0.00 in0.0 mm 0.00 in0.0 mm 0.00 in0.0 mm
04:40 PM 84.9°F29.4°C 59.3°F15.2°C 42% 9.2 mph NW14.8 kmh NW 13.0 mph20.9 kmh 29.98 in1015.2 mb 0.00 in0.0 mm 0.00 in0.0 mm 0.00 in0.0 mm
04:50 PM 83.1°F28.4°C 58.4°F14.7°C 43% 9.2 mph NW14.8 kmh NW 14.5 mph23.3 kmh 29.97 in1014.9 mb 0.00 in0.0 mm 0.00 in0.0 mm 0.00 in0.0 mm
05:00 PM 83.1°F28.4°C 59.6°F15.3°C 45% 8.3 mph NNW13.4 kmh NNW 14.5 mph23.3 kmh 29.97 in1014.9 mb 0.00 in0.0 mm 0.00 in0.0 mm 0.00 in0.0 mm
05:10 PM 82.2°F27.9°C 58.2°F14.6°C 44% 7.6 mph NW12.2 kmh NW 11.4 mph18.3 kmh 29.97 in1014.9 mb 0.00 in0.0 mm 0.00 in0.0 mm 0.00 in0.0 mm
05:20 PM 81.9°F27.7°C 57.9°F14.4°C 44% 6.0 mph NW9.7 kmh NW 14.5 mph23.3 kmh 29.97 in1014.9 mb 0.00 in0.0 mm 0.00 in0.0 mm 0.00 in0.0 mm
05:30 PM 82.9°F28.3°C 60.1°F15.6°C 46% 9.8 mph NW15.8 kmh NW 11.4 mph18.3 kmh 29.98 in1015.2 mb 0.00 in0.0 mm 0.00 in0.0 mm 0.00 in0.0 mm
05:40 PM 82.0°F27.8°C 58.6°F14.8°C 45% 3.8 mph NW6.1 kmh NW 13.6 mph21.9 kmh 29.97 in1014.9 mb 0.00 in0.0 mm 0.00 in0.0 mm 0.00 in0.0 mm
05:50 PM 81.3°F27.4°C 58.0°F14.4°C 45% 3.8 mph NW6.1 kmh NW 11.4 mph18.3 kmh 29.97 in1014.9 mb 0.00 in0.0 mm 0.00 in0.0 mm 0.00 in0.0 mm
06:00 PM 81.0°F27.2°C 58.3°F14.6°C 46% 7.6 mph NNW12.2 kmh NNW 12.1 mph19.5 kmh 29.97 in1014.9 mb 0.00 in0.0 mm 0.00 in0.0 mm 0.00 in0.0 mm
06:10 PM 80.2°F26.8°C 58.8°F14.9°C 48% 6.0 mph NNW9.7 kmh NNW 10.7 mph17.2 kmh 29.97 in1014.9 mb 0.00 in0.0 mm 0.00 in0.0 mm 0.00 in0.0 mm
06:20 PM 79.5°F26.4°C 59.3°F15.2°C 50% 4.5 mph NNW7.2 kmh NNW 10.7 mph17.2 kmh 29.98 in1015.2 mb 0.00 in0.0 mm 0.00 in0.0 mm 0.00 in0.0 mm
06:30 PM 78.6°F25.9°C 60.1°F15.6°C 53% 3.8 mph NW6.1 kmh NW 10.7 mph17.2 kmh 29.98 in1015.2 mb 0.00 in0.0 mm 0.00 in0.0 mm 0.00 in0.0 mm
06:40 PM 78.3°F25.7°C 60.3°F15.7°C 54% 4.5 mph NNW7.2 kmh NNW 9.2 mph14.8 kmh 29.99 in1015.6 mb 0.00 in0.0 mm 0.00 in0.0 mm 0.00 in0.0 mm
06:50 PM 77.7°F25.4°C 60.8°F16.0°C 56% 5.4 mph NW8.7 kmh NW 8.3 mph13.4 kmh 30.00 in1015.9 mb 0.00 in0.0 mm 0.00 in0.0 mm 0.00 in0.0 mm
07:00 PM 77.2°F25.1°C 60.8°F16.0°C 57% 4.5 mph NNW7.2 kmh NNW 7.6 mph12.2 kmh 30.00 in1015.9 mb 0.00 in0.0 mm 0.00 in0.0 mm 0.00 in0.0 mm
07:10 PM 76.5°F24.7°C 61.6°F16.4°C 60% 2.2 mph NNW3.5 kmh NNW 6.9 mph11.1 kmh 30.00 in1015.9 mb 0.00 in0.0 mm 0.00 in0.0 mm 0.00 in0.0 mm
07:20 PM 75.9°F24.4°C 60.6°F15.9°C 59% 4.5 mph NW7.2 kmh NW 8.3 mph13.4 kmh 30.01 in1016.3 mb 0.00 in0.0 mm 0.00 in0.0 mm 0.00 in0.0 mm
07:30 PM 75.4°F24.1°C 60.6°F15.9°C 60% 3.1 mph NW5.0 kmh NW 7.6 mph12.2 kmh 30.01 in1016.3 mb 0.00 in0.0 mm 0.00 in0.0 mm 0.00 in0.0 mm
07:40 PM 74.8°F23.8°C 61.4°F16.3°C 63% 4.5 mph N7.2 kmh N 6.0 mph9.7 kmh 30.01 in1016.3 mb 0.00 in0.0 mm 0.00 in0.0 mm 0.00 in0.0 mm
07:50 PM 74.5°F23.6°C 61.5°F16.4°C 64% 3.8 mph NNW6.1 kmh NNW 6.9 mph11.1 kmh 30.01 in1016.3 mb 0.00 in0.0 mm 0.00 in0.0 mm 0.00 in0.0 mm
08:00 PM 73.9°F23.3°C 61.5°F16.4°C 65% 2.2 mph NNW3.5 kmh NNW 5.4 mph8.7 kmh 30.01 in1016.3 mb 0.00 in0.0 mm 0.00 in0.0 mm 0.00 in0.0 mm
08:10 PM 73.4°F23.0°C 61.4°F16.3°C 66% 3.1 mph N5.0 kmh N 6.0 mph9.7 kmh 30.02 in1016.6 mb 0.00 in0.0 mm 0.00 in0.0 mm 0.00 in0.0 mm
08:20 PM 72.3°F22.4°C 60.4°F15.8°C 66% 3.8 mph N6.1 kmh N 6.0 mph9.7 kmh 30.01 in1016.3 mb 0.00 in0.0 mm 0.00 in0.0 mm 0.00 in0.0 mm
08:30 PM 72.9°F22.7°C 60.4°F15.8°C 65% 6.9 mph N11.1 kmh N 10.7 mph17.2 kmh 30.01 in1016.3 mb 0.00 in0.0 mm 0.00 in0.0 mm 0.00 in0.0 mm
08:40 PM 72.9°F22.7°C 60.0°F15.6°C 64% 4.5 mph NNW7.2 kmh NNW 9.2 mph14.8 kmh 30.02 in1016.6 mb 0.00 in0.0 mm 0.00 in0.0 mm 0.00 in0.0 mm
08:50 PM 72.3°F22.4°C 59.9°F15.5°C 65% 5.4 mph NNW8.7 kmh NNW 9.2 mph14.8 kmh 30.01 in1016.3 mb 0.00 in0.0 mm 0.00 in0.0 mm 0.00 in0.0 mm
09:00 PM 72.3°F22.4°C 60.4°F15.8°C 66% 4.5 mph N7.2 kmh N 9.2 mph14.8 kmh 30.02 in1016.6 mb 0.00 in0.0 mm 0.00 in0.0 mm 0.00 in0.0 mm
09:10 PM 71.8°F22.1°C 60.3°F15.7°C 67% 3.8 mph N6.1 kmh N 6.9 mph11.1 kmh 30.02 in1016.6 mb 0.00 in0.0 mm 0.00 in0.0 mm 0.00 in0.0 mm
09:20 PM 71.4°F21.9°C 60.7°F15.9°C 69% 3.8 mph N6.1 kmh N 6.9 mph11.1 kmh 30.02 in1016.6 mb 0.00 in0.0 mm 0.00 in0.0 mm 0.00 in0.0 mm
09:30 PM 71.2°F21.8°C 61.0°F16.1°C 70% 3.8 mph N6.1 kmh N 6.0 mph9.7 kmh 30.02 in1016.6 mb 0.00 in0.0 mm 0.00 in0.0 mm 0.00 in0.0 mm
09:40 PM 70.7°F21.5°C 60.9°F16.1°C 71% 3.1 mph N5.0 kmh N 6.9 mph11.1 kmh 30.02 in1016.6 mb 0.00 in0.0 mm 0.00 in0.0 mm 0.00 in0.0 mm
09:50 PM 70.3°F21.3°C 60.9°F16.1°C 72% 3.8 mph N6.1 kmh N 7.6 mph12.2 kmh 30.02 in1016.6 mb 0.00 in0.0 mm 0.00 in0.0 mm 0.00 in0.0 mm
10:00 PM 70.0°F21.1°C 61.0°F16.1°C 73% 3.1 mph N5.0 kmh N 8.3 mph13.4 kmh 30.02 in1016.6 mb 0.00 in0.0 mm 0.00 in0.0 mm 0.00 in0.0 mm
10:10 PM 69.6°F20.9°C 61.4°F16.3°C 75% 3.1 mph N5.0 kmh N 6.0 mph9.7 kmh 30.02 in1016.6 mb 0.00 in0.0 mm 0.00 in0.0 mm 0.00 in0.0 mm
10:20 PM 69.4°F20.8°C 61.6°F16.4°C 76% 3.8 mph N6.1 kmh N 7.6 mph12.2 kmh 30.02 in1016.6 mb 0.00 in0.0 mm 0.00 in0.0 mm 0.00 in0.0 mm
10:30 PM 69.4°F20.8°C 61.6°F16.4°C 76% 4.5 mph N7.2 kmh N 7.6 mph12.2 kmh 30.01 in1016.3 mb 0.00 in0.0 mm 0.00 in0.0 mm 0.00 in0.0 mm
10:40 PM 69.4°F20.8°C 61.9°F16.6°C 77% 5.4 mph N8.7 kmh N 9.2 mph14.8 kmh 30.01 in1016.3 mb 0.00 in0.0 mm 0.00 in0.0 mm 0.00 in0.0 mm
10:50 PM 69.4°F20.8°C 61.9°F16.6°C 77% 3.1 mph NNE5.0 kmh NNE 9.2 mph14.8 kmh 30.01 in1016.3 mb 0.00 in0.0 mm 0.00 in0.0 mm 0.00 in0.0 mm
11:00 PM 69.1°F20.6°C 61.6°F16.4°C 77% 3.1 mph N5.0 kmh N 8.3 mph13.4 kmh 30.02 in1016.6 mb 0.00 in0.0 mm 0.00 in0.0 mm 0.00 in0.0 mm
11:10 PM 69.1°F20.6°C 62.0°F16.7°C 78% 6.0 mph N9.7 kmh N 8.3 mph13.4 kmh 30.01 in1016.3 mb 0.00 in0.0 mm 0.00 in0.0 mm 0.00 in0.0 mm
11:20 PM 69.1°F20.6°C 62.0°F16.7°C 78% 5.4 mph N8.7 kmh N 9.2 mph14.8 kmh 30.01 in1016.3 mb 0.00 in0.0 mm 0.00 in0.0 mm 0.00 in0.0 mm
11:30 PM 68.7°F20.4°C 61.6°F16.4°C 78% 3.8 mph N6.1 kmh N 9.8 mph15.8 kmh 30.00 in1015.9 mb 0.00 in0.0 mm 0.00 in0.0 mm 0.00 in0.0 mm
11:40 PM 68.0°F20.0°C 61.6°F16.4°C 80% 3.8 mph N6.1 kmh N 7.6 mph12.2 kmh 30.01 in1016.3 mb 0.00 in0.0 mm 0.00 in0.0 mm 0.00 in0.0 mm
11:50 PM 67.5°F19.7°C 62.1°F16.7°C 83% 3.8 mph N6.1 kmh N 7.6 mph12.2 kmh 30.00 in1015.9 mb 0.00 in0.0 mm 0.00 in0.0 mm 0.00 in0.0 mm